Metar Aviation Weather Data EIDW Dublin

21°C Temp
17°C Dewpoint
78% Humidity
Temperature
11 KM/H
7 MPH
6 KTS
250°
West South
West

Wind Speed
Partly Cloudy
Conditions
Pressure 1016 (hPa) - 30 (in)
Visibility 6.2 (mi) - 10 (km)

Current Conditions
EIDW
Dublin
Metar :EIDW 222200Z 25006KT 230V290 9999 FEW040 BKN060 21/17 Q1016 NOSIG
Sun 22nd July 23:00 pm

Dublin
  Metar Aviation API Data Provided by https://www.checkwx.com/ PHP scripts by weather34.com ©2018